createdAt,value
2017-05-18T00:00:37.780Z,19.5
2017-05-18T00:01:40.161Z,19.5
2017-05-18T00:02:42.490Z,19.5
2017-05-18T00:03:44.803Z,19.5
2017-05-18T00:04:47.143Z,19.5
2017-05-18T00:05:49.488Z,19.5
2017-05-18T00:06:51.802Z,19.6
2017-05-18T00:07:54.148Z,19.6
2017-05-18T00:08:56.559Z,19.5
2017-05-18T00:09:59.442Z,19.7
2017-05-18T00:11:02.532Z,19.5
2017-05-18T00:12:04.850Z,19.6
2017-05-18T00:13:07.249Z,19.7
2017-05-18T00:14:09.807Z,19.8
2017-05-18T00:15:12.139Z,19.8
2017-05-18T00:16:14.476Z,19.7
2017-05-18T00:17:16.794Z,19.8
2017-05-18T00:18:19.219Z,19.8
2017-05-18T00:19:22.090Z,19.8
2017-05-18T00:20:24.465Z,19.8
2017-05-18T00:21:26.794Z,19.8
2017-05-18T00:22:29.151Z,19.9
2017-05-18T00:23:31.715Z,19.9
2017-05-18T00:24:34.085Z,19.8
2017-05-18T00:25:36.483Z,19.9
2017-05-18T00:26:38.928Z,19.9
2017-05-18T00:27:41.300Z,19.9
2017-05-18T00:28:43.630Z,19.9
2017-05-18T00:29:45.981Z,19.9
2017-05-18T00:30:48.356Z,20
2017-05-18T00:31:50.766Z,20
2017-05-18T00:32:53.050Z,20
2017-05-18T00:33:55.426Z,20
2017-05-18T00:34:57.761Z,20
2017-05-18T00:36:00.132Z,20
2017-05-18T00:37:02.467Z,20
2017-05-18T00:38:04.814Z,20
2017-05-18T00:39:07.171Z,20
2017-05-18T00:40:09.555Z,19.9
2017-05-18T00:41:12.147Z,20
2017-05-18T00:42:14.483Z,19.9
2017-05-18T00:43:16.807Z,20
2017-05-18T00:44:19.139Z,19.9
2017-05-18T00:45:21.480Z,20
2017-05-18T00:46:24.288Z,20
2017-05-18T00:47:26.581Z,20
2017-05-18T00:48:28.952Z,20
2017-05-18T00:49:31.306Z,19.9
2017-05-18T00:50:33.646Z,19.9
2017-05-18T00:51:35.958Z,20
2017-05-18T00:52:38.306Z,20
2017-05-18T00:53:40.644Z,20
2017-05-18T00:54:43.049Z,20
2017-05-18T00:55:45.387Z,20
2017-05-18T00:56:47.736Z,19.9
2017-05-18T00:57:50.107Z,19.9
2017-05-18T00:58:52.437Z,19.9
2017-05-18T00:59:54.792Z,19.9
2017-05-18T01:00:57.135Z,20
2017-05-18T01:01:59.546Z,19.9
2017-05-18T01:03:01.868Z,19.9
2017-05-18T01:04:04.206Z,20
2017-05-18T01:05:06.535Z,19.9
2017-05-18T01:06:08.923Z,19.9
2017-05-18T01:07:11.274Z,19.9
2017-05-18T01:08:13.579Z,19.9
2017-05-18T01:09:15.957Z,19.8
2017-05-18T01:10:18.350Z,19.8
2017-05-18T01:11:21.324Z,19.7
2017-05-18T01:12:23.652Z,19.7
2017-05-18T01:13:25.969Z,19.8
2017-05-18T01:14:28.375Z,19.8
2017-05-18T01:15:30.736Z,19.8
2017-05-18T01:16:33.090Z,19.8
2017-05-18T01:17:35.425Z,19.7
2017-05-18T01:18:37.783Z,19.7
2017-05-18T01:19:40.167Z,19.7
2017-05-18T01:20:42.787Z,19.7
2017-05-18T01:21:45.143Z,19.7
2017-05-18T01:22:47.503Z,19.7
2017-05-18T01:23:49.894Z,19.7
2017-05-18T01:24:52.255Z,19.6
2017-05-18T01:25:54.586Z,19.6
2017-05-18T01:26:56.945Z,19.6
2017-05-18T01:27:59.364Z,19.7
2017-05-18T01:29:01.823Z,19.6
2017-05-18T01:30:04.151Z,19.6
2017-05-18T01:31:06.500Z,19.5
2017-05-18T01:32:08.865Z,19.5
2017-05-18T01:33:11.244Z,19.5
2017-05-18T01:34:13.598Z,19.4
2017-05-18T01:35:15.945Z,19.5
2017-05-18T01:36:18.284Z,19.5
2017-05-18T01:37:20.649Z,19.5
2017-05-18T01:38:22.991Z,19.5
2017-05-18T01:39:25.313Z,19.4
2017-05-18T01:40:27.685Z,19.4
2017-05-18T01:41:30.066Z,19.4
2017-05-18T01:42:32.371Z,19.4
2017-05-18T01:43:34.972Z,19.4
2017-05-18T01:44:37.354Z,19.3
2017-05-18T01:45:39.735Z,19.3
2017-05-18T01:46:42.071Z,19.4
2017-05-18T01:47:44.435Z,19.4
2017-05-18T01:48:46.793Z,19.4
2017-05-18T01:49:49.122Z,19.3
2017-05-18T01:50:51.471Z,19.3
2017-05-18T01:51:53.815Z,19.2
2017-05-18T01:52:56.108Z,19.3
2017-05-18T01:53:58.506Z,19.3
2017-05-18T01:55:00.834Z,19.2
2017-05-18T01:56:03.143Z,19.3
2017-05-18T01:57:05.455Z,19.2
2017-05-18T01:58:07.765Z,19.2
2017-05-18T01:59:10.167Z,19.2
2017-05-18T02:00:12.477Z,19.3
2017-05-18T02:01:14.787Z,19.3
2017-05-18T02:02:17.175Z,19.3
2017-05-18T02:03:19.555Z,19.3
2017-05-18T02:04:21.904Z,19.3
2017-05-18T02:05:24.236Z,19.3
2017-05-18T02:06:26.594Z,19.3
2017-05-18T02:07:28.936Z,19.3
2017-05-18T02:08:31.270Z,19.3
2017-05-18T02:09:33.628Z,19.2
2017-05-18T02:10:35.940Z,19.2
2017-05-18T02:11:38.847Z,19.3
2017-05-18T02:12:41.140Z,19.2
2017-05-18T02:13:43.491Z,19.2
2017-05-18T02:14:46.136Z,19.1
2017-05-18T02:15:48.532Z,19.2
2017-05-18T02:16:50.840Z,19.2
2017-05-18T02:17:53.154Z,19.2
2017-05-18T02:18:55.495Z,19.3
2017-05-18T02:19:57.816Z,19.1
2017-05-18T02:21:00.186Z,19.2
2017-05-18T02:22:02.535Z,19.2
2017-05-18T02:23:04.867Z,19.2
2017-05-18T02:24:07.197Z,19.1
2017-05-18T02:25:09.552Z,19
2017-05-18T02:26:11.928Z,19
2017-05-18T02:27:14.243Z,19.1
2017-05-18T02:28:16.615Z,19.1
2017-05-18T02:29:19.044Z,19.1
2017-05-18T02:30:22.113Z,19
2017-05-18T02:31:24.475Z,19
2017-05-18T02:32:26.819Z,18.9
2017-05-18T02:33:29.153Z,18.8
2017-05-18T02:34:31.869Z,18.8
2017-05-18T02:35:34.208Z,18.8
2017-05-18T02:36:36.712Z,18.8
2017-05-18T02:37:39.072Z,18.7
2017-05-18T02:38:41.408Z,18.6
2017-05-18T02:39:43.746Z,18.5
2017-05-18T02:40:46.083Z,18.6
2017-05-18T02:41:48.476Z,18.5
2017-05-18T02:42:50.843Z,18.7
2017-05-18T02:43:53.194Z,18.8
2017-05-18T02:44:55.496Z,18.7
2017-05-18T02:45:58.382Z,18.7
2017-05-18T02:47:00.730Z,18.8
2017-05-18T02:48:03.075Z,18.8
2017-05-18T02:49:05.394Z,18.8
2017-05-18T02:50:08.257Z,18.8
2017-05-18T02:51:10.829Z,18.7
2017-05-18T02:52:13.387Z,18.9
2017-05-18T02:53:15.732Z,18.9
2017-05-18T02:54:18.104Z,18.8
2017-05-18T02:55:20.407Z,18.8
2017-05-18T02:56:22.739Z,18.7
2017-05-18T02:57:25.058Z,18.7
2017-05-18T02:58:27.471Z,18.7
2017-05-18T02:59:29.821Z,18.7
2017-05-18T03:00:32.155Z,18.9
2017-05-18T03:01:34.535Z,18.9
2017-05-18T03:02:37.281Z,19
2017-05-18T03:03:39.649Z,19
2017-05-18T03:04:42.005Z,19
2017-05-18T03:05:44.340Z,19
2017-05-18T03:06:46.695Z,18.9
2017-05-18T03:07:49.108Z,19
2017-05-18T03:08:51.471Z,19
2017-05-18T03:09:53.826Z,19
2017-05-18T03:10:56.154Z,19
2017-05-18T03:11:58.626Z,19
2017-05-18T03:13:00.950Z,18.9
2017-05-18T03:14:03.261Z,19
2017-05-18T03:15:05.591Z,19
2017-05-18T03:16:07.927Z,18.7
2017-05-18T03:17:10.590Z,18.9
2017-05-18T03:18:12.951Z,18.9
2017-05-18T03:19:15.297Z,19
2017-05-18T03:20:17.733Z,19
2017-05-18T03:21:20.062Z,19
2017-05-18T03:22:22.376Z,18.9
2017-05-18T03:23:24.751Z,18.9
2017-05-18T03:24:27.120Z,19
2017-05-18T03:25:29.463Z,18.9
2017-05-18T03:26:31.806Z,18.8
2017-05-18T03:27:34.141Z,18.9
2017-05-18T03:28:36.507Z,19
2017-05-18T03:29:38.883Z,19
2017-05-18T03:30:41.246Z,19
2017-05-18T03:31:43.601Z,19
2017-05-18T03:32:45.983Z,19
2017-05-18T03:33:48.311Z,19
2017-05-18T03:34:50.739Z,19.1
2017-05-18T03:35:53.057Z,19.1
2017-05-18T03:36:55.368Z,19.1
2017-05-18T03:37:57.730Z,18.9
2017-05-18T03:39:00.141Z,19
2017-05-18T03:40:02.525Z,19.2
2017-05-18T03:41:04.912Z,19.2
2017-05-18T03:42:07.278Z,19.2
2017-05-18T03:43:09.649Z,19.1
2017-05-18T03:44:12.053Z,19
2017-05-18T03:45:14.355Z,19
2017-05-18T03:46:16.683Z,19.1
2017-05-18T03:47:19.047Z,19
2017-05-18T03:48:21.812Z,19
2017-05-18T03:49:24.137Z,19
2017-05-18T03:50:26.445Z,19
2017-05-18T03:51:28.810Z,19
2017-05-18T03:52:31.140Z,19.1
2017-05-18T03:53:33.505Z,19
2017-05-18T03:54:35.863Z,19.1
2017-05-18T03:55:38.191Z,19
2017-05-18T03:56:40.572Z,19.1
2017-05-18T03:57:42.954Z,19.1
2017-05-18T03:58:45.334Z,19.1
2017-05-18T03:59:47.710Z,19.1
2017-05-18T04:00:50.138Z,19.2
2017-05-18T04:01:52.488Z,19.2
2017-05-18T04:02:55.057Z,19.3
2017-05-18T04:03:57.446Z,19.2
2017-05-18T04:04:59.866Z,19.3
2017-05-18T04:06:02.285Z,19.2
2017-05-18T04:07:04.572Z,19.2
2017-05-18T04:08:06.927Z,19.3
2017-05-18T04:09:09.309Z,19.3
2017-05-18T04:10:11.665Z,19.2
2017-05-18T04:11:13.993Z,19.3
2017-05-18T04:12:16.333Z,19.3
2017-05-18T04:13:18.723Z,19.3
2017-05-18T04:14:21.044Z,19.3
2017-05-18T04:15:23.376Z,19.3
2017-05-18T04:16:25.727Z,19.2
2017-05-18T04:17:28.052Z,19.2
2017-05-18T04:18:30.463Z,19.2
2017-05-18T04:19:42.027Z,19.1
2017-05-18T04:20:44.397Z,19.1
2017-05-18T04:21:46.717Z,19.1
2017-05-18T04:22:49.059Z,19.1
2017-05-18T04:23:51.407Z,19
2017-05-18T04:24:53.759Z,19.1
2017-05-18T04:25:56.122Z,19.1
2017-05-18T04:26:58.485Z,19.1
2017-05-18T04:28:00.865Z,19.1
2017-05-18T04:29:03.227Z,19.2
2017-05-18T04:30:05.855Z,19.2
2017-05-18T04:31:08.225Z,19.3
2017-05-18T04:32:10.628Z,19.2
2017-05-18T04:33:12.957Z,19.2
2017-05-18T04:34:15.290Z,19.2
2017-05-18T04:35:17.637Z,19.2
2017-05-18T04:36:20.042Z,19.1
2017-05-18T04:37:22.375Z,19.2
2017-05-18T04:38:24.696Z,19.1
2017-05-18T04:39:27.063Z,19.1
2017-05-18T04:40:29.536Z,19.1
2017-05-18T04:41:31.880Z,19
2017-05-18T04:42:34.204Z,19.1
2017-05-18T04:43:36.555Z,19.1
2017-05-18T04:44:38.925Z,19.2
2017-05-18T04:45:41.295Z,19.2
2017-05-18T04:46:43.655Z,19.2
2017-05-18T04:47:45.993Z,19.3
2017-05-18T04:48:48.398Z,19.4
2017-05-18T04:49:50.774Z,19.5
2017-05-18T04:50:53.146Z,19.4
2017-05-18T04:51:55.518Z,19.5
2017-05-18T04:52:57.913Z,19.6
2017-05-18T04:54:00.325Z,19.6
2017-05-18T04:55:02.718Z,19.6
2017-05-18T04:56:05.116Z,19.6
2017-05-18T04:57:07.432Z,19.7
2017-05-18T04:58:09.775Z,19.8
2017-05-18T04:59:12.103Z,19.7
2017-05-18T05:00:14.440Z,19.6
2017-05-18T05:01:20.339Z,19.6
2017-05-18T05:02:22.697Z,19.6
2017-05-18T05:03:25.093Z,19.8
2017-05-18T05:04:27.587Z,19.8
2017-05-18T05:05:30.004Z,19.8
2017-05-18T05:06:32.399Z,19.6
2017-05-18T05:07:34.794Z,20
2017-05-18T05:08:37.238Z,20.1
2017-05-18T05:09:39.655Z,20.2
2017-05-18T05:10:42.006Z,20.4
2017-05-18T05:11:44.710Z,20.3
2017-05-18T05:12:47.083Z,20.3
2017-05-18T05:13:50.177Z,20.2
2017-05-18T05:14:52.519Z,20.4
2017-05-18T05:15:54.920Z,20.6
2017-05-18T05:16:57.294Z,20.8
2017-05-18T05:17:59.737Z,20.8
2017-05-18T05:19:02.198Z,20.8
2017-05-18T05:20:04.627Z,20.9
2017-05-18T05:21:06.973Z,21.1
2017-05-18T05:22:09.694Z,21.3
2017-05-18T05:23:12.062Z,21.2
2017-05-18T05:24:14.431Z,21.4
2017-05-18T05:25:16.790Z,21.6
2017-05-18T05:26:19.213Z,21.7
2017-05-18T05:27:21.574Z,21.8
2017-05-18T05:28:23.959Z,21.5
2017-05-18T05:29:26.306Z,21.7
2017-05-18T05:30:28.666Z,21.9
2017-05-18T05:31:31.035Z,22
2017-05-18T05:32:33.426Z,22.2
2017-05-18T05:33:35.838Z,23.1
2017-05-18T05:34:38.218Z,23.5
2017-05-18T05:35:40.631Z,24.1
2017-05-18T05:36:43.028Z,24.4
2017-05-18T05:37:45.648Z,24.1
2017-05-18T05:38:48.057Z,24
2017-05-18T05:39:50.505Z,24.1
2017-05-18T05:40:52.864Z,24
2017-05-18T05:41:55.216Z,24
2017-05-18T05:42:57.541Z,24.7
2017-05-18T05:44:00.063Z,25.6
2017-05-18T05:45:02.447Z,25.6
2017-05-18T05:46:04.820Z,26
2017-05-18T05:47:07.191Z,26.6
2017-05-18T05:48:09.626Z,26.9
2017-05-18T05:49:11.975Z,26.9
2017-05-18T05:50:14.420Z,26.9
2017-05-18T05:51:18.461Z,27
2017-05-18T05:52:20.932Z,26.9
2017-05-18T05:53:23.338Z,26.5
2017-05-18T05:54:25.730Z,26.7
2017-05-18T05:55:28.068Z,27.2
2017-05-18T05:56:30.952Z,27.4
2017-05-18T05:57:33.388Z,27.3
2017-05-18T05:58:35.811Z,27.1
2017-05-18T05:59:38.238Z,26.9
2017-05-18T06:00:40.647Z,26.4
2017-05-18T06:01:43.074Z,26.2
2017-05-18T06:02:45.441Z,26
2017-05-18T06:03:47.809Z,26
2017-05-18T06:04:50.279Z,25.8
2017-05-18T06:05:52.690Z,25.8
2017-05-18T06:06:55.193Z,25.7
2017-05-18T06:07:57.612Z,25.9
2017-05-18T06:09:00.166Z,26
2017-05-18T06:10:02.619Z,25.6
2017-05-18T06:11:04.991Z,25.5
2017-05-18T06:12:07.397Z,25.6
2017-05-18T06:13:09.879Z,25.3
2017-05-18T06:14:12.342Z,25.3
2017-05-18T06:15:14.746Z,25.5
2017-05-18T06:16:17.104Z,25.3
2017-05-18T06:17:19.531Z,25
2017-05-18T06:18:21.947Z,25.3
2017-05-18T06:19:24.426Z,25.4
2017-05-18T06:20:26.854Z,25.1
2017-05-18T06:21:29.281Z,25.2
2017-05-18T06:22:31.685Z,25.5
2017-05-18T06:23:34.116Z,25.4
2017-05-18T06:24:36.558Z,25.5
2017-05-18T06:25:38.929Z,25
2017-05-18T06:26:41.473Z,24.9
2017-05-18T06:27:43.870Z,25.1
2017-05-18T06:28:46.258Z,25.2
2017-05-18T06:29:49.292Z,25.2
2017-05-18T06:30:51.684Z,25.7
2017-05-18T06:31:54.121Z,25.6
2017-05-18T06:32:56.469Z,25.4
2017-05-18T06:33:59.607Z,25.2
2017-05-18T06:35:02.113Z,25.2
2017-05-18T06:36:04.545Z,25.5
2017-05-18T06:37:06.924Z,25.5
2017-05-18T06:38:09.543Z,25.4
2017-05-18T06:39:12.200Z,25.5
2017-05-18T06:40:14.621Z,25.5
2017-05-18T06:41:16.989Z,25.4
2017-05-18T06:42:19.406Z,25.4
2017-05-18T06:43:21.758Z,25.3
2017-05-18T06:44:24.121Z,25.2
2017-05-18T06:45:26.515Z,25.2
2017-05-18T06:46:29.599Z,25.2
2017-05-18T06:47:31.994Z,25.3
2017-05-18T06:48:34.429Z,25.1
2017-05-18T06:49:36.844Z,25.2
2017-05-18T06:50:39.267Z,25
2017-05-18T06:51:41.634Z,25.2
2017-05-18T06:52:43.994Z,25.4
2017-05-18T06:53:46.475Z,25.3
2017-05-18T06:54:48.865Z,25.2
2017-05-18T06:55:51.724Z,25
2017-05-18T06:56:54.084Z,25.1
2017-05-18T06:57:56.481Z,25.2
2017-05-18T06:58:58.843Z,25
2017-05-18T07:00:01.280Z,25.3
2017-05-18T07:01:03.641Z,25.3
2017-05-18T07:02:06.016Z,25.2
2017-05-18T07:03:08.392Z,25.2
2017-05-18T07:04:10.868Z,25.4
2017-05-18T07:05:13.304Z,25.3
2017-05-18T07:06:16.049Z,25.2
2017-05-18T07:07:18.518Z,25.3
2017-05-18T07:08:20.972Z,25.4
2017-05-18T07:09:23.362Z,25.5
2017-05-18T07:10:25.780Z,25.5
2017-05-18T07:11:28.172Z,25.4
2017-05-18T07:12:31.101Z,25.7
2017-05-18T07:13:33.489Z,25.7
2017-05-18T07:14:35.880Z,25.6
2017-05-18T07:15:38.270Z,25.8
2017-05-18T07:16:40.715Z,25.7
2017-05-18T07:17:43.117Z,26.1
2017-05-18T07:18:45.474Z,25.9
2017-05-18T07:19:47.892Z,26
2017-05-18T07:20:50.389Z,26
2017-05-18T07:21:52.786Z,26.2
2017-05-18T07:22:55.188Z,26.4
2017-05-18T07:23:57.718Z,26.4
2017-05-18T07:25:00.275Z,26.5
2017-05-18T07:26:03.232Z,26.6
2017-05-18T07:27:05.899Z,26.2
2017-05-18T07:28:08.305Z,26.5
2017-05-18T07:29:10.850Z,26.4
2017-05-18T07:30:13.218Z,26.8
2017-05-18T07:31:15.691Z,26.8
2017-05-18T07:32:18.213Z,26.9
2017-05-18T07:33:20.666Z,26.2
2017-05-18T07:34:23.073Z,26.4
2017-05-18T07:35:25.465Z,26.6
2017-05-18T07:36:27.882Z,26.5
2017-05-18T07:37:30.336Z,26.6
2017-05-18T07:38:32.720Z,26.6
2017-05-18T07:39:35.110Z,26.8
2017-05-18T07:40:37.515Z,26.9
2017-05-18T07:41:39.951Z,27
2017-05-18T07:42:42.426Z,27
2017-05-18T07:43:44.871Z,27
2017-05-18T07:44:47.334Z,27
2017-05-18T07:45:50.413Z,27.2
2017-05-18T07:46:52.870Z,27.4
2017-05-18T07:47:55.310Z,27.7
2017-05-18T07:48:57.795Z,27.5
2017-05-18T07:50:00.403Z,27.6
2017-05-18T07:51:02.843Z,27.6
2017-05-18T07:52:05.264Z,27.5
2017-05-18T07:53:07.735Z,27.8
2017-05-18T07:54:10.159Z,27.4
2017-05-18T07:55:12.604Z,27.1
2017-05-18T07:56:14.998Z,27.2
2017-05-18T07:57:26.324Z,27.3
2017-05-18T07:58:28.935Z,27.2
2017-05-18T07:59:31.388Z,27.3
2017-05-18T08:00:33.791Z,27.3
2017-05-18T08:01:36.182Z,27.6
2017-05-18T08:02:38.645Z,27.6
2017-05-18T08:03:41.144Z,27.7
2017-05-18T08:04:43.550Z,27.7
2017-05-18T08:05:45.983Z,27.9
2017-05-18T08:06:48.417Z,28.1
2017-05-18T08:07:50.892Z,27.7
2017-05-18T08:08:53.404Z,28
2017-05-18T08:09:55.887Z,28.1
2017-05-18T08:10:58.968Z,28.2
2017-05-18T08:12:01.410Z,28.3
2017-05-18T08:13:03.883Z,28.3
2017-05-18T08:14:06.395Z,28.4
2017-05-18T08:15:08.849Z,28.6
2017-05-18T08:16:11.311Z,28.4
2017-05-18T08:17:13.752Z,28.3
2017-05-18T08:18:16.236Z,28.1
2017-05-18T08:19:18.638Z,28.1
2017-05-18T08:20:21.090Z,28.3
2017-05-18T08:21:23.510Z,28.3
2017-05-18T08:22:25.916Z,28.3
2017-05-18T08:23:28.398Z,28.2
2017-05-18T08:24:30.884Z,28.2
2017-05-18T08:25:33.272Z,28.2
2017-05-18T08:26:35.941Z,28.1
2017-05-18T08:27:38.427Z,28.2
2017-05-18T08:28:40.924Z,28.3
2017-05-18T08:29:44.469Z,28.2
2017-05-18T08:30:46.907Z,28.3
2017-05-18T08:31:49.369Z,28.4
2017-05-18T08:32:52.162Z,28.4
2017-05-18T08:33:54.531Z,28.6
2017-05-18T08:34:56.899Z,28.7
2017-05-18T08:35:59.470Z,28.6
2017-05-18T08:37:01.868Z,28.7
2017-05-18T08:38:04.260Z,28.7
2017-05-18T08:39:07.237Z,28.6
2017-05-18T08:40:09.686Z,28.5
2017-05-18T08:41:12.087Z,28.5
2017-05-18T08:42:14.545Z,28.4
2017-05-18T08:43:17.105Z,28.4
2017-05-18T08:44:19.662Z,28.3
2017-05-18T08:45:22.117Z,28.5
2017-05-18T08:46:24.534Z,28.6
2017-05-18T08:47:26.954Z,28.6
2017-05-18T08:48:29.331Z,28.2
2017-05-18T08:49:31.769Z,28.5
2017-05-18T08:50:34.184Z,28.5
2017-05-18T08:51:36.637Z,28.5
2017-05-18T08:52:39.035Z,28.5
2017-05-18T08:53:41.473Z,28.4
2017-05-18T08:54:43.879Z,28.4
2017-05-18T08:55:46.289Z,28.4
2017-05-18T08:56:48.688Z,28.2
2017-05-18T08:57:51.192Z,28.3
2017-05-18T08:58:53.575Z,28.1
2017-05-18T08:59:56.009Z,28.4
2017-05-18T09:00:58.573Z,28.1
2017-05-18T09:02:01.002Z,28.3
2017-05-18T09:03:03.510Z,28.4
2017-05-18T09:04:05.918Z,28.5
2017-05-18T09:05:08.403Z,28.8
2017-05-18T09:06:11.836Z,28.9
2017-05-18T09:07:14.258Z,28.9
2017-05-18T09:08:16.687Z,28.9
2017-05-18T09:09:19.190Z,28.7
2017-05-18T09:10:21.701Z,28.5
2017-05-18T09:11:24.166Z,28.4
2017-05-18T09:12:26.651Z,28.7
2017-05-18T09:13:29.083Z,28.9
2017-05-18T09:14:32.971Z,28.8
2017-05-18T09:15:35.430Z,28.8
2017-05-18T09:16:37.925Z,28.9
2017-05-18T09:17:40.446Z,29.2
2017-05-18T09:18:42.977Z,29.2
2017-05-18T09:19:46.230Z,29.2
2017-05-18T09:20:48.653Z,28.8
2017-05-18T09:21:51.147Z,29.1
2017-05-18T09:22:53.652Z,29.3
2017-05-18T09:23:56.125Z,29.3
2017-05-18T09:24:58.576Z,29.4
2017-05-18T09:26:01.137Z,29
2017-05-18T09:27:03.537Z,29.3
2017-05-18T09:28:05.962Z,29.1
2017-05-18T09:29:08.482Z,29.3
2017-05-18T09:30:13.948Z,29
2017-05-18T09:31:16.420Z,29.1
2017-05-18T09:32:19.107Z,29.1
2017-05-18T09:33:22.656Z,29.4
2017-05-18T09:34:25.155Z,29.4
2017-05-18T09:35:27.625Z,29.1
2017-05-18T09:36:30.160Z,29.2
2017-05-18T09:37:32.671Z,29.5
2017-05-18T09:38:35.156Z,29.8
2017-05-18T09:39:37.609Z,30.2
2017-05-18T09:40:40.415Z,30.3
2017-05-18T09:41:42.917Z,30.9
2017-05-18T09:42:45.381Z,31.1
2017-05-18T09:43:47.920Z,31.2
2017-05-18T09:44:50.880Z,31.6
2017-05-18T09:45:53.316Z,31.4
2017-05-18T09:46:55.980Z,31.1
2017-05-18T09:47:58.557Z,31.6
2017-05-18T09:49:01.152Z,31.7
2017-05-18T09:50:03.663Z,31.6
2017-05-18T09:51:06.250Z,31.8
2017-05-18T09:52:08.793Z,31.9
2017-05-18T09:53:11.944Z,31.9
2017-05-18T09:54:14.483Z,32
2017-05-18T09:55:17.106Z,31.9
2017-05-18T09:56:23.073Z,31.6
2017-05-18T09:57:25.590Z,31.7
2017-05-18T09:58:28.131Z,31.7
2017-05-18T09:59:30.640Z,32
2017-05-18T10:00:33.289Z,31.9
2017-05-18T10:01:35.744Z,32.1
2017-05-18T10:02:38.342Z,32.5
2017-05-18T10:03:41.318Z,32.5
2017-05-18T10:04:43.765Z,32.8
2017-05-18T10:05:46.168Z,33.5
2017-05-18T10:06:48.641Z,34.1
2017-05-18T10:07:51.866Z,34.3
2017-05-18T10:08:54.350Z,33.6
2017-05-18T10:09:56.837Z,33.8
2017-05-18T10:10:59.320Z,33.4
2017-05-18T10:12:01.895Z,33.3
2017-05-18T10:13:04.355Z,33.3
2017-05-18T10:14:06.816Z,32
2017-05-18T10:15:10.605Z,31.2
2017-05-18T10:17:21.427Z,30.9
2017-05-18T10:18:24.288Z,30.9
2017-05-18T10:19:26.766Z,31
2017-05-18T10:20:29.845Z,30.9
2017-05-18T10:21:32.336Z,31
2017-05-18T10:22:34.873Z,31.2
2017-05-18T10:23:37.386Z,31
2017-05-18T10:24:40.509Z,30.5
2017-05-18T10:25:42.962Z,30.4
2017-05-18T10:26:45.384Z,29.9
2017-05-18T10:27:47.938Z,30.1
2017-05-18T10:28:51.145Z,30.4
2017-05-18T10:29:53.714Z,30.5
2017-05-18T10:30:56.142Z,30.4
2017-05-18T10:31:58.659Z,30.6
2017-05-18T10:33:01.256Z,30.7
2017-05-18T10:34:03.673Z,31
2017-05-18T10:35:06.174Z,31.1
2017-05-18T10:36:08.709Z,31
2017-05-18T10:37:11.255Z,30.6
2017-05-18T10:38:13.727Z,30.6
2017-05-18T10:39:16.841Z,30.5
2017-05-18T10:40:19.338Z,30.2
2017-05-18T10:41:21.904Z,30.5
2017-05-18T10:42:24.433Z,30.6
2017-05-18T10:43:27.022Z,30.5
2017-05-18T10:44:30.200Z,30.4
2017-05-18T10:45:32.722Z,30.4
2017-05-18T10:46:36.447Z,30.7
2017-05-18T10:47:39.543Z,30.8
2017-05-18T10:48:43.200Z,30.8
2017-05-18T10:49:45.612Z,31
2017-05-18T10:50:48.610Z,31
2017-05-18T10:51:51.243Z,31
2017-05-18T10:52:53.704Z,30.9
2017-05-18T10:53:56.741Z,30.7
2017-05-18T10:54:59.237Z,30
2017-05-18T10:56:02.394Z,30.4
2017-05-18T10:57:05.465Z,30.7
2017-05-18T10:58:07.848Z,31
2017-05-18T10:59:11.016Z,31
2017-05-18T11:00:14.270Z,30.9
2017-05-18T11:01:17.311Z,30.4
2017-05-18T11:02:22.438Z,31
2017-05-18T11:03:24.993Z,31.2
2017-05-18T11:04:28.826Z,30.8
2017-05-18T11:05:32.296Z,30.5
2017-05-18T11:06:34.960Z,30.7
2017-05-18T11:07:39.169Z,31
2017-05-18T11:08:42.368Z,31.7
2017-05-18T11:09:45.062Z,31.5
2017-05-18T11:10:47.524Z,31.5
2017-05-18T11:11:50.240Z,32.2
2017-05-18T11:12:52.740Z,32.2
2017-05-18T11:13:55.946Z,32.2
2017-05-18T11:14:59.028Z,32.4
2017-05-18T11:16:02.753Z,32.1
2017-05-18T11:17:05.380Z,31.7
2017-05-18T11:18:08.565Z,31.6
2017-05-18T11:19:14.602Z,31.7
2017-05-18T11:20:17.906Z,31.9
2017-05-18T11:21:22.279Z,31.4
2017-05-18T11:22:24.852Z,31
2017-05-18T11:23:27.560Z,30.8
2017-05-18T11:24:31.447Z,31.3
2017-05-18T11:25:34.176Z,31.2
2017-05-18T11:26:36.746Z,30.5
2017-05-18T11:27:39.459Z,30.1
2017-05-18T11:28:42.217Z,30.2
2017-05-18T11:29:44.753Z,30.2
2017-05-18T11:30:48.286Z,30.7
2017-05-18T11:31:50.827Z,30.9
2017-05-18T11:32:56.114Z,31.2
2017-05-18T11:33:58.660Z,30.9
2017-05-18T11:35:02.907Z,30.2
2017-05-18T11:36:05.423Z,29.9
2017-05-18T11:37:08.054Z,30.1
2017-05-18T11:38:11.353Z,29.9
2017-05-18T11:39:13.856Z,29.8
2017-05-18T11:40:17.189Z,29.6
2017-05-18T11:41:20.700Z,29.7
2017-05-18T11:42:23.169Z,30.5
2017-05-18T11:43:25.575Z,30.5
2017-05-18T11:44:28.173Z,30.6
2017-05-18T11:45:31.829Z,30.7
2017-05-18T11:46:34.325Z,30.8
2017-05-18T11:47:38.613Z,31.1
2017-05-18T11:48:41.145Z,31.3
2017-05-18T11:49:44.181Z,31.1
2017-05-18T11:50:46.781Z,30.5
2017-05-18T11:51:49.827Z,30.5
2017-05-18T11:52:52.375Z,30.1
2017-05-18T11:53:56.101Z,30
2017-05-18T11:54:59.304Z,30.4
2017-05-18T11:56:02.026Z,31
2017-05-18T11:57:06.034Z,30.9
2017-05-18T11:58:08.549Z,30.5
2017-05-18T11:59:11.769Z,30.5
2017-05-18T12:00:14.241Z,31
2017-05-18T12:01:17.403Z,31.4
2017-05-18T12:02:21.637Z,31.4
2017-05-18T12:03:24.706Z,30.9
2017-05-18T12:04:27.221Z,30.5
2017-05-18T12:05:29.733Z,30.1
2017-05-18T12:06:32.621Z,30
2017-05-18T12:07:36.075Z,30.2
2017-05-18T12:08:39.237Z,30.4
2017-05-18T12:09:41.773Z,30.8
2017-05-18T12:10:44.256Z,30.7
2017-05-18T12:11:46.774Z,30.5
2017-05-18T12:13:57.281Z,30.2
2017-05-18T12:14:59.820Z,30.5
2017-05-18T12:16:02.376Z,30.8
2017-05-18T12:17:04.852Z,31.2
2017-05-18T12:18:08.050Z,31.6
2017-05-18T12:19:10.647Z,31.5
2017-05-18T12:20:13.144Z,31.2
2017-05-18T12:21:15.623Z,31.1
2017-05-18T12:22:18.093Z,31.3
2017-05-18T12:23:20.757Z,30.7
2017-05-18T12:24:24.652Z,30.4
2017-05-18T12:25:30.514Z,30.5
2017-05-18T12:26:34.104Z,30.6
2017-05-18T12:27:37.147Z,30.6
2017-05-18T12:28:39.757Z,30.5
2017-05-18T12:29:47.196Z,29.9
2017-05-18T12:30:49.646Z,29.2
2017-05-18T12:31:53.273Z,29.4
2017-05-18T12:32:55.851Z,29.6
2017-05-18T12:33:58.406Z,30.3
2017-05-18T12:35:01.486Z,30.6
2017-05-18T12:36:07.704Z,30.6
2017-05-18T12:37:10.414Z,30.5
2017-05-18T12:38:13.112Z,30.6
2017-05-18T12:39:16.436Z,30.3
2017-05-18T12:40:19.114Z,30.2
2017-05-18T12:41:23.181Z,29.6
2017-05-18T12:42:25.793Z,28.7
2017-05-18T12:43:28.358Z,28.4
2017-05-18T12:44:30.918Z,29.2
2017-05-18T12:45:33.573Z,29.5
2017-05-18T12:46:36.104Z,29.8
2017-05-18T12:47:40.247Z,30
2017-05-18T12:48:43.751Z,30.1
2017-05-18T12:49:47.152Z,29.9
2017-05-18T12:50:49.754Z,29.9
2017-05-18T12:51:52.309Z,29.4
2017-05-18T12:52:54.831Z,29.2
2017-05-18T12:53:57.981Z,29.5
2017-05-18T12:55:00.538Z,29.7
2017-05-18T12:56:05.576Z,29.5
2017-05-18T12:57:09.113Z,29.6
2017-05-18T12:58:12.345Z,29.4
2017-05-18T12:59:14.804Z,29.2
2017-05-18T13:00:17.816Z,29
2017-05-18T13:01:20.380Z,28.5
2017-05-18T13:02:22.855Z,28.8
2017-05-18T13:03:25.942Z,28.6
2017-05-18T13:04:29.095Z,28.7
2017-05-18T13:05:32.217Z,28.7
2017-05-18T13:06:35.848Z,28.8
2017-05-18T13:07:39.416Z,29
2017-05-18T13:08:41.904Z,29
2017-05-18T13:09:44.448Z,28.9
2017-05-18T13:10:46.847Z,28.9
2017-05-18T13:11:49.381Z,28.9
2017-05-18T13:13:02.339Z,28.6
2017-05-18T13:14:04.742Z,28.7
2017-05-18T13:15:07.600Z,28.1
2017-05-18T13:16:11.029Z,28
2017-05-18T13:17:13.498Z,27.9
2017-05-18T13:18:15.913Z,28
2017-05-18T13:19:19.035Z,28.1
2017-05-18T13:20:22.643Z,28.3
2017-05-18T13:21:25.210Z,28.4
2017-05-18T13:22:28.354Z,28.4
2017-05-18T13:23:32.551Z,28.4
2017-05-18T13:24:36.620Z,28.4
2017-05-18T13:25:39.133Z,28.3
2017-05-18T13:26:41.686Z,28.3
2017-05-18T13:27:44.364Z,28
2017-05-18T13:28:47.254Z,27.8
2017-05-18T13:29:49.846Z,27.3
2017-05-18T13:30:52.637Z,27
2017-05-18T13:31:55.857Z,27
2017-05-18T13:32:58.427Z,27.1
2017-05-18T13:34:01.745Z,26.9
2017-05-18T13:35:06.392Z,26.5
2017-05-18T13:36:09.018Z,26.4
2017-05-18T13:37:12.532Z,26.2
2017-05-18T13:38:15.601Z,25.8
2017-05-18T13:39:18.613Z,25
2017-05-18T13:40:21.058Z,24.6
2017-05-18T13:41:24.319Z,24.5
2017-05-18T13:42:27.484Z,24.1
2017-05-18T13:43:30.028Z,24
2017-05-18T13:44:32.609Z,23.9
2017-05-18T13:45:35.055Z,24
2017-05-18T13:46:39.980Z,23.9
2017-05-18T13:47:42.682Z,23.9
2017-05-18T13:48:45.376Z,23.7
2017-05-18T13:49:47.930Z,23.8
2017-05-18T13:50:50.563Z,23.7
2017-05-18T13:51:53.053Z,23.5
2017-05-18T13:52:55.528Z,23.7
2017-05-18T13:53:59.686Z,23.3
2017-05-18T13:55:02.479Z,23.6
2017-05-18T13:56:04.948Z,23.4
2017-05-18T13:57:08.597Z,23.2
2017-05-18T13:58:11.693Z,22.9
2017-05-18T13:59:14.287Z,23.2
2017-05-18T14:00:18.275Z,23.3
2017-05-18T14:01:22.343Z,23.3
2017-05-18T14:02:25.817Z,23.1
2017-05-18T14:03:28.453Z,23.1
2017-05-18T14:04:31.070Z,23.1